Portada
METAR-TAF:

METAR-TAF

Aeropuertos :

Base Aérea de Morón

Morón de la Frontera, España

latitud: 37-09N, longitud: 005-37W, altitud: 87 m

Observación

El informe se hizo hace 17 minutos, a las 09:00 UTC
Viento 2 kt con dirección variable
Temperatura 10°C
Humedad 100%
Presión 1023 hPa
Visibilidad: 4700 m
neblina

METAR: LEMO 270900Z VRB02KT 4700 BR NSC 10/10 Q1023 NOSIG

Hora: 10:17 (09:17 UTC)

Pronóstico

El informe se hizo hace 1 hora y 17 minutos, a las 08:00 UTC
Pronóstico válido del 27 a las 09 UTC al 28 a las 09 UTC
Viento 8 kt del este-noreste
Visibilidad 10 km o más
Escasas nubes a una altura de 4500 ft
Probabilidad 30% :
Temporalmente
del 27 a las 09 UTC al 27 a las 10 UTC
Visibilidad: 4000 m
neblina

TAF: LEMO 270800Z 2709/2809 07008KT 9999 FEW045 TX18/2715Z TN07/2807Z PROB30 TEMPO 2709/2710 4000 BR

Observaciones y pronósticos meteorológicos de más de 4000 aeropuertos (mensajes METAR y TAF).

Los puntos amarillos y rojos representan las estaciones disponibles.

Ponga el ratón en el punto deseado para ver el nombre de la estación.

Haga clic para ver las observaciones y los pronósticos meteorológicos.

Para cambiar el mapa : haga clic en los botones verdes con una cruz de color negro para hacer un zoom, en el botón verde con un guión para alejar o en las flechas verdes para mapas adyacentes.


METAR-TAF: